EFMI

Mikkeli Airport

Mikkeli, Finland
METAR EFMI 180650Z AUTO 00000KT 0400 SN OVC004 M15/M17 Q1023
Observed Flight Rules
Feb-18 @ 06:50 UTC (25 minutes ago) Instrument Flight Rules
Wind Visibility Clouds Conditions
Calm 402 meters
  • Overcast at 400' AGL
  • Snow
Temperatures Readings
Current -15°C / 5°F
Dewpoint -17°C / 1°F
Humidity 85%
Altimeter 30.21" Hg
Pressure 1023 hPa
Elevation 138
METAR EFMI 180650Z AUTO 00000KT 0400 SN OVC004 M15/M17 Q1023
Observed Flight Rules
Feb-18 @ 06:50 UTC
(25 minutes ago)
LIFR
Wind Visibility
Calm 402 meters
Clouds
  • Overcast at 400' AGL
Conditions
  • Snow
Temperature Dewpoint
-15°C / 5°F -17°C / 1°F
Humidity Altimeter Pressure
85% 30.21" Hg 1023 hPa